Time;durP1;ratioP1;P1;durP2;ratioP2;P2;SDS_P1;SDS_P2;PMS_P1;PMS_P2;Temp;Humidity;BMP_temperature;BMP_pressure;BME280_temperature;BME280_humidity;BME280_pressure;Samples;Min_cycle;Max_cycle;Signal;HPM_P1;HPM_P2
2022/06/17 00:01:46;;;;;;;;;;;22.80;44.10;;;;;;5033760;28;20355;-73
2022/06/17 00:04:12;;;;;;;;;;;22.70;44.10;;;;;;5034054;28;19912;-74
2022/06/17 00:06:58;;;;;;;;;;;22.70;43.90;;;;;;5033871;28;20026;-73
2022/06/17 00:09:25;;;;;;;;;;;22.70;44.50;;;;;;5033684;28;19912;-73
2022/06/17 00:11:50;;;;;;;;;;;22.60;44.50;;;;;;5033587;28;19955;-72
2022/06/17 00:14:21;;;;;;;;;;;22.60;44.50;;;;;;5033875;28;19959;-73
2022/06/17 00:16:46;;;;;;;;;;;22.60;44.30;;;;;;5033777;28;19999;-72
2022/06/17 00:19:12;;;;;;;;;;;22.50;44.60;;;;;;5032446;28;20427;-72
2022/06/17 00:21:40;;;;;;;;;;;22.50;44.60;;;;;;5033620;28;19905;-72
2022/06/17 00:24:13;;;;;;;;;;;22.50;44.80;;;;;;5033776;28;19913;-72
2022/06/17 00:26:38;;;;;;;;;;;22.40;44.10;;;;;;5033774;28;19917;-72
2022/06/17 00:29:04;;;;;;;;;;;22.40;44.70;;;;;;5033550;28;19909;-73
2022/06/17 00:31:29;;;;;;;;;;;22.40;45.90;;;;;;5033577;28;19916;-73
2022/06/17 00:33:55;;;;;;;;;;;22.40;44.80;;;;;;5033672;28;19911;-73
2022/06/17 00:36:20;;;;;;;;;;;22.30;44.90;;;;;;5033846;28;20306;-72
2022/06/17 00:38:46;;;;;;;;;;;22.30;45.10;;;;;;5033924;28;20435;-72
2022/06/17 00:41:14;;;;;;;;;;;22.30;45.10;;;;;;5033893;28;20275;-72
2022/06/17 00:43:40;;;;;;;;;;;22.40;45.00;;;;;;5033788;28;19983;-73
2022/06/17 00:46:11;;;;;;;;;;;22.40;45.00;;;;;;5034581;28;20390;-73
2022/06/17 00:48:42;;;;;;;;;;;22.40;45.20;;;;;;5036329;28;20360;-72
2022/06/17 00:51:11;;;;;;;;;;;22.40;44.80;;;;;;5037606;28;19913;-72
2022/06/17 00:53:51;;;;;;;;;;;22.40;45.60;;;;;;5037412;28;19905;-73
2022/06/17 00:56:24;;;;;;;;;;;22.40;45.60;;;;;;5037546;28;19953;-72
2022/06/17 00:59:10;;;;;;;;;;;22.30;45.00;;;;;;5035961;28;20008;-72
2022/06/17 01:01:39;;;;;;;;;;;22.20;45.10;;;;;;5037094;28;20068;-72
2022/06/17 01:04:05;;;;;;;;;;;22.20;46.00;;;;;;5037321;28;19905;-73
2022/06/17 01:06:33;;;;;;;;;;;22.10;45.20;;;;;;5036147;28;20378;-73
2022/06/17 01:11:46;;;;;;;;;;;22.10;45.20;;;;;;5037657;28;19919;-72
2022/06/17 01:14:14;;;;;;;;;;;22.20;45.50;;;;;;5037538;28;19991;-72
2022/06/17 01:16:41;;;;;;;;;;;22.20;45.30;;;;;;5037090;28;19905;-72
2022/06/17 01:19:19;;;;;;;;;;;22.20;45.20;;;;;;5037600;28;19912;-72
2022/06/17 01:21:57;;;;;;;;;;;22.30;45.90;;;;;;5037230;28;19905;-72
2022/06/17 01:24:24;;;;;;;;;;;22.40;45.30;;;;;;5035807;28;19966;-73
2022/06/17 01:26:49;;;;;;;;;;;22.40;45.10;;;;;;5035444;28;19944;-73
2022/06/17 01:29:15;;;;;;;;;;;22.40;45.10;;;;;;5036852;28;19963;-71
2022/06/17 01:31:43;;;;;;;;;;;22.50;45.20;;;;;;5037039;28;19905;-73
2022/06/17 01:34:13;;;;;;;;;;;22.50;44.90;;;;;;5036649;28;19909;-73
2022/06/17 01:36:39;;;;;;;;;;;22.50;44.90;;;;;;5035610;28;19905;-73
2022/06/17 01:39:05;;;;;;;;;;;22.60;44.90;;;;;;5035860;28;20372;-72
2022/06/17 01:41:32;;;;;;;;;;;22.60;44.80;;;;;;5036800;28;19986;-74
2022/06/17 01:44:00;;;;;;;;;;;22.70;44.80;;;;;;5036703;28;19963;-72
2022/06/17 01:46:32;;;;;;;;;;;22.60;44.70;;;;;;5036518;28;20026;-73
2022/06/17 01:49:01;;;;;;;;;;;22.60;44.70;;;;;;5036334;28;19905;-73
2022/06/17 01:51:28;;;;;;;;;;;22.70;45.00;;;;;;5036489;28;19913;-72
2022/06/17 01:53:56;;;;;;;;;;;22.70;44.80;;;;;;5036874;28;19905;-73
2022/06/17 01:56:23;;;;;;;;;;;22.70;44.60;;;;;;5036238;28;19948;-73
2022/06/17 01:58:58;;;;;;;;;;;22.70;44.80;;;;;;5036197;28;19905;-73
2022/06/17 02:01:24;;;;;;;;;;;22.70;44.80;;;;;;5035956;28;19905;-71
2022/06/17 02:03:54;;;;;;;;;;;22.70;44.80;;;;;;5036284;28;19927;-72
2022/06/17 02:06:19;;;;;;;;;;;22.70;44.70;;;;;;5036198;28;19905;-70
2022/06/17 02:08:45;;;;;;;;;;;22.70;44.80;;;;;;5036092;28;19905;-71
2022/06/17 02:11:11;;;;;;;;;;;22.70;44.70;;;;;;5035988;28;19917;-71
2022/06/17 02:13:36;;;;;;;;;;;22.70;44.60;;;;;;5035943;28;20004;-71
2022/06/17 02:16:03;;;;;;;;;;;22.80;44.80;;;;;;5035693;28;19912;-71
2022/06/17 02:18:29;;;;;;;;;;;22.80;44.90;;;;;;5036016;28;19951;-71
2022/06/17 02:20:57;;;;;;;;;;;22.80;44.80;;;;;;5035905;28;19905;-71
2022/06/17 02:23:23;;;;;;;;;;;22.80;44.70;;;;;;5035829;28;20351;-70
2022/06/17 02:25:50;;;;;;;;;;;22.90;44.70;;;;;;5035922;28;20332;-71
2022/06/17 02:28:16;;;;;;;;;;;22.90;44.80;;;;;;5034406;28;20371;-71
2022/06/17 02:30:43;;;;;;;;;;;22.90;44.60;;;;;;5035719;28;19913;-71
2022/06/17 02:33:09;;;;;;;;;;;22.90;44.80;;;;;;5035543;28;20356;-71
2022/06/17 02:35:44;;;;;;;;;;;23.00;44.70;;;;;;5034884;28;19936;-71
2022/06/17 02:38:14;;;;;;;;;;;23.00;44.80;;;;;;5034461;28;20051;-71
2022/06/17 02:40:40;;;;;;;;;;;23.00;44.70;;;;;;5035352;28;19966;-71
2022/06/17 02:43:09;;;;;;;;;;;23.00;44.80;;;;;;5035289;28;19948;-71
2022/06/17 02:45:39;;;;;;;;;;;23.00;44.50;;;;;;5035711;28;19905;-71
2022/06/17 02:48:09;;;;;;;;;;;23.00;44.50;;;;;;5035369;28;19905;-72
2022/06/17 02:50:34;;;;;;;;;;;23.10;44.70;;;;;;5035185;28;19917;-71
2022/06/17 02:53:01;;;;;;;;;;;23.10;44.60;;;;;;5034255;28;19912;-72
2022/06/17 02:55:31;;;;;;;;;;;23.10;44.60;;;;;;5035318;28;19905;-72
2022/06/17 02:58:02;;;;;;;;;;;23.00;44.50;;;;;;5035566;28;19999;-71
2022/06/17 03:00:28;;;;;;;;;;;23.10;44.60;;;;;;5034969;28;19956;-71
2022/06/17 03:02:55;;;;;;;;;;;23.10;44.50;;;;;;5035419;28;19905;-72
2022/06/17 03:05:24;;;;;;;;;;;23.00;44.40;;;;;;5033863;28;19905;-72
2022/06/17 03:07:50;;;;;;;;;;;23.00;44.50;;;;;;5035076;28;19905;-73
2022/06/17 03:10:17;;;;;;;;;;;23.10;44.50;;;;;;5034538;28;20438;-72
2022/06/17 03:12:44;;;;;;;;;;;23.10;44.50;;;;;;5034732;28;20003;-72
2022/06/17 03:15:15;;;;;;;;;;;23.20;44.70;;;;;;5034688;28;19904;-71
2022/06/17 03:17:41;;;;;;;;;;;23.10;44.60;;;;;;5035067;28;19905;-71
2022/06/17 03:20:13;;;;;;;;;;;23.10;44.40;;;;;;5033507;28;19905;-72
2022/06/17 03:22:38;;;;;;;;;;;23.10;44.60;;;;;;5034494;28;19947;-71
2022/06/17 03:25:08;;;;;;;;;;;23.10;44.60;;;;;;5034770;28;19990;-72
2022/06/17 03:27:42;;;;;;;;;;;23.10;44.80;;;;;;5034830;28;20059;-71
2022/06/17 03:30:10;;;;;;;;;;;23.10;44.70;;;;;;5034623;28;19913;-72
2022/06/17 03:32:37;;;;;;;;;;;23.00;44.90;;;;;;5034551;28;19905;-72
2022/06/17 03:35:03;;;;;;;;;;;23.00;44.90;;;;;;5034290;28;20043;-72
2022/06/17 03:37:37;;;;;;;;;;;23.00;44.70;;;;;;5034350;28;20000;-72
2022/06/17 03:40:04;;;;;;;;;;;23.00;44.90;;;;;;5034774;28;19912;-71
2022/06/17 03:42:35;;;;;;;;;;;23.00;45.00;;;;;;5034632;28;19912;-72
2022/06/17 03:45:14;;;;;;;;;;;23.00;44.90;;;;;;5034269;28;19905;-71
2022/06/17 03:47:52;;;;;;;;;;;23.10;45.10;;;;;;5034070;28;19912;-72
2022/06/17 03:50:27;;;;;;;;;;;23.10;44.90;;;;;;5034159;28;20384;-71
2022/06/17 03:52:58;;;;;;;;;;;23.20;45.10;;;;;;5034760;28;20354;-71
2022/06/17 03:55:23;;;;;;;;;;;23.20;45.00;;;;;;5034052;28;19912;-71
2022/06/17 03:57:50;;;;;;;;;;;23.20;45.00;;;;;;5034055;28;19905;-72
2022/06/17 04:00:19;;;;;;;;;;;23.20;44.90;;;;;;5033957;28;20425;-72
2022/06/17 04:02:46;;;;;;;;;;;23.20;45.10;;;;;;5034185;28;20386;-72
2022/06/17 04:05:14;;;;;;;;;;;23.20;45.00;;;;;;5034309;28;20290;-72
2022/06/17 04:07:40;;;;;;;;;;;23.20;44.90;;;;;;5033825;28;19944;-71
2022/06/17 04:10:06;;;;;;;;;;;23.20;44.90;;;;;;5033858;28;19967;-72
2022/06/17 04:12:32;;;;;;;;;;;23.20;45.00;;;;;;5033966;28;19905;-71
2022/06/17 04:15:00;;;;;;;;;;;23.30;44.40;;;;;;5034005;28;19913;-72
2022/06/17 04:17:46;;;;;;;;;;;23.30;45.00;;;;;;5033944;28;19912;-72
2022/06/17 04:20:27;;;;;;;;;;;23.30;45.00;;;;;;5034205;28;19951;-72
2022/06/17 04:22:54;;;;;;;;;;;23.40;45.10;;;;;;5037916;28;19944;-72
2022/06/17 04:25:40;;;;;;;;;;;23.40;44.90;;;;;;5040390;28;19963;-72
2022/06/17 04:28:07;;;;;;;;;;;23.50;45.30;;;;;;5036455;28;20275;-71
2022/06/17 04:30:35;;;;;;;;;;;23.50;45.10;;;;;;5055447;28;19923;-71
2022/06/17 04:33:01;;;;;;;;;;;23.50;45.10;;;;;;5057745;28;19968;-72
2022/06/17 04:35:27;;;;;;;;;;;23.50;45.10;;;;;;5037507;28;20379;-72
2022/06/17 04:37:53;;;;;;;;;;;23.50;45.30;;;;;;5036627;28;19956;-72
2022/06/17 04:40:26;;;;;;;;;;;23.60;45.10;;;;;;5055831;28;19916;-72
2022/06/17 04:42:53;;;;;;;;;;;23.60;45.10;;;;;;5057690;28;19909;-71
2022/06/17 04:45:20;;;;;;;;;;;23.60;45.30;;;;;;5057470;28;19905;-71
2022/06/17 04:47:46;;;;;;;;;;;23.70;45.10;;;;;;5057260;28;19913;-72
2022/06/17 04:50:14;;;;;;;;;;;23.70;45.30;;;;;;5057151;28;19984;-72
2022/06/17 04:52:44;;;;;;;;;;;23.70;45.10;;;;;;5057504;28;19905;-72
2022/06/17 04:55:15;;;;;;;;;;;23.70;45.10;;;;;;5057533;28;19904;-72
2022/06/17 04:57:41;;;;;;;;;;;23.70;45.10;;;;;;5057362;28;19905;-72
2022/06/17 05:00:07;;;;;;;;;;;23.80;45.10;;;;;;5052113;28;19991;-72
2022/06/17 05:02:33;;;;;;;;;;;23.80;45.00;;;;;;5035951;28;19909;-72
2022/06/17 05:05:00;;;;;;;;;;;23.80;45.10;;;;;;5039834;28;20251;-73
2022/06/17 05:07:27;;;;;;;;;;;23.80;45.00;;;;;;5046760;28;19912;-72
2022/06/17 05:09:57;;;;;;;;;;;23.90;45.00;;;;;;5045469;28;19921;-72
2022/06/17 05:12:31;;;;;;;;;;;23.90;44.90;;;;;;5047307;28;19944;-73
2022/06/17 05:15:03;;;;;;;;;;;23.90;45.00;;;;;;5047388;28;19955;-75
2022/06/17 05:17:29;;;;;;;;;;;23.90;45.10;;;;;;5048848;28;19908;-72
2022/06/17 05:19:54;;;;;;;;;;;23.90;45.00;;;;;;5051637;28;19909;-72
2022/06/17 05:22:30;;;;;;;;;;;23.90;45.00;;;;;;5045339;28;20413;-70
2022/06/17 05:24:56;;;;;;;;;;;23.90;45.20;;;;;;5037487;28;19905;-72
2022/06/17 05:27:22;;;;;;;;;;;23.90;45.00;;;;;;5037346;28;20367;-73
2022/06/17 05:29:47;;;;;;;;;;;23.90;45.00;;;;;;5035540;28;19928;-74
2022/06/17 05:32:16;;;;;;;;;;;24.00;45.10;;;;;;5051828;28;19909;-73
2022/06/17 05:34:41;;;;;;;;;;;24.00;45.20;;;;;;5055340;28;19905;-73
2022/06/17 05:37:07;;;;;;;;;;;24.10;45.30;;;;;;5056543;28;19929;-73
2022/06/17 05:39:33;;;;;;;;;;;24.10;45.20;;;;;;5051856;28;20284;-73
2022/06/17 05:41:58;;;;;;;;;;;24.20;45.20;;;;;;5045400;28;19904;-74
2022/06/17 05:44:23;;;;;;;;;;;24.20;45.10;;;;;;5045588;28;19908;-74
2022/06/17 05:46:49;;;;;;;;;;;24.20;45.10;;;;;;5046334;28;19905;-74
2022/06/17 05:49:14;;;;;;;;;;;24.20;45.10;;;;;;5044439;28;19909;-76
2022/06/17 05:51:40;;;;;;;;;;;24.30;45.20;;;;;;5044656;28;20263;-75
2022/06/17 05:54:06;;;;;;;;;;;24.30;45.10;;;;;;5045870;28;19913;-73
2022/06/17 05:56:31;;;;;;;;;;;24.30;45.00;;;;;;5043992;28;20453;-72
2022/06/17 05:58:57;;;;;;;;;;;24.40;45.00;;;;;;5044801;28;19908;-73
2022/06/17 06:01:22;;;;;;;;;;;24.40;44.90;;;;;;5045377;28;19955;-73
2022/06/17 06:03:48;;;;;;;;;;;24.50;44.90;;;;;;5049643;28;20000;-73
2022/06/17 06:06:13;;;;;;;;;;;24.50;44.90;;;;;;5046727;28;20414;-73
2022/06/17 06:08:39;;;;;;;;;;;24.60;44.80;;;;;;5035461;28;19909;-73
2022/06/17 06:11:05;;;;;;;;;;;24.60;44.60;;;;;;5035034;28;19913;-73
2022/06/17 06:13:30;;;;;;;;;;;24.70;44.90;;;;;;5035404;28;19905;-73
2022/06/17 06:15:58;;;;;;;;;;;24.80;44.60;;;;;;5036181;28;19905;-73
2022/06/17 06:18:29;;;;;;;;;;;24.80;44.50;;;;;;5035793;28;19948;-73
2022/06/17 06:20:54;;;;;;;;;;;24.80;44.30;;;;;;5036053;28;19950;-73
2022/06/17 06:23:20;;;;;;;;;;;24.80;44.00;;;;;;5036026;28;19905;-72
2022/06/17 06:25:46;;;;;;;;;;;24.90;43.80;;;;;;5034766;28;19912;-72
2022/06/17 06:28:14;;;;;;;;;;;24.90;43.80;;;;;;5034593;28;19921;-73
2022/06/17 06:30:39;;;;;;;;;;;24.90;43.50;;;;;;5036037;28;19920;-73
2022/06/17 06:33:05;;;;;;;;;;;24.90;43.50;;;;;;5035404;28;19905;-73
2022/06/17 06:35:33;;;;;;;;;;;24.90;43.10;;;;;;5035731;28;19905;-74
2022/06/17 06:37:59;;;;;;;;;;;25.00;43.60;;;;;;5035488;28;19911;-72
2022/06/17 06:40:26;;;;;;;;;;;25.00;43.00;;;;;;5035311;28;19928;-73
2022/06/17 06:42:52;;;;;;;;;;;25.00;42.80;;;;;;5035166;28;19904;-72
2022/06/17 06:45:21;;;;;;;;;;;25.00;42.60;;;;;;5033726;28;19909;-72
2022/06/17 06:47:47;;;;;;;;;;;25.10;42.80;;;;;;5035600;28;19975;-73
2022/06/17 06:50:14;;;;;;;;;;;25.00;42.50;;;;;;5035098;28;20367;-72
2022/06/17 06:52:40;;;;;;;;;;;25.00;42.20;;;;;;5034012;28;19911;-73
2022/06/17 06:55:05;;;;;;;;;;;25.10;41.80;;;;;;5035297;28;19908;-73
2022/06/17 06:57:31;;;;;;;;;;;25.10;41.60;;;;;;5035171;28;20262;-73
2022/06/17 07:00:01;;;;;;;;;;;25.10;40.80;;;;;;5033784;28;20063;-73
2022/06/17 07:02:26;;;;;;;;;;;25.10;41.30;;;;;;5035215;28;19944;-75
2022/06/17 07:04:52;;;;;;;;;;;25.10;41.30;;;;;;5033918;28;20382;-73
2022/06/17 07:07:17;;;;;;;;;;;25.10;40.90;;;;;;5034857;28;19909;-74
2022/06/17 07:09:43;;;;;;;;;;;25.20;40.60;;;;;;5034655;28;19982;-73
2022/06/17 07:12:08;;;;;;;;;;;25.20;40.90;;;;;;5033661;28;19905;-74
2022/06/17 07:14:34;;;;;;;;;;;25.20;39.90;;;;;;5035049;28;19905;-74
2022/06/17 07:16:59;;;;;;;;;;;25.30;39.30;;;;;;5033278;28;19909;-72
2022/06/17 07:19:25;;;;;;;;;;;25.30;39.70;;;;;;5034926;28;19905;-73
2022/06/17 07:21:51;;;;;;;;;;;25.40;40.00;;;;;;5034693;28;20004;-73
2022/06/17 07:24:16;;;;;;;;;;;25.40;39.90;;;;;;5034233;28;20051;-74
2022/06/17 07:26:42;;;;;;;;;;;25.50;40.10;;;;;;5034559;28;20415;-73
2022/06/17 07:29:08;;;;;;;;;;;25.50;40.00;;;;;;5034461;28;20363;-75
2022/06/17 07:31:34;;;;;;;;;;;25.60;40.30;;;;;;5034440;28;19913;-73
2022/06/17 07:33:59;;;;;;;;;;;25.60;40.00;;;;;;5033197;28;20023;-73
2022/06/17 07:41:57;;;;;;;;;;;25.70;39.80;;;;;;5034531;28;19916;-74
2022/06/17 07:44:23;;;;;;;;;;;25.70;39.70;;;;;;5034100;28;20314;-73
2022/06/17 07:46:49;;;;;;;;;;;25.80;39.70;;;;;;5034382;28;20279;-73
2022/06/17 07:49:15;;;;;;;;;;;25.80;39.50;;;;;;5033851;28;19948;-73
2022/06/17 07:51:40;;;;;;;;;;;25.90;39.30;;;;;;5033477;28;19963;-73
2022/06/17 07:54:06;;;;;;;;;;;25.90;39.40;;;;;;5034133;28;20279;-73
2022/06/17 07:56:31;;;;;;;;;;;25.90;38.40;;;;;;5034126;28;20264;-73
2022/06/17 07:58:58;;;;;;;;;;;26.00;38.80;;;;;;5034379;28;20287;-73
2022/06/17 08:01:23;;;;;;;;;;;26.00;39.30;;;;;;5032871;28;20344;-73
2022/06/17 08:03:49;;;;;;;;;;;26.00;39.00;;;;;;5032666;28;19991;-73
2022/06/17 08:06:16;;;;;;;;;;;26.00;38.90;;;;;;5034508;28;19905;-73
2022/06/17 08:08:42;;;;;;;;;;;26.10;38.80;;;;;;5034062;28;19905;-73
2022/06/17 08:11:08;;;;;;;;;;;26.10;38.40;;;;;;5034069;28;20288;-72
2022/06/17 08:13:34;;;;;;;;;;;26.10;38.70;;;;;;5034036;28;19909;-72
2022/06/17 08:16:00;;;;;;;;;;;26.20;38.50;;;;;;5033980;28;19916;-73
2022/06/17 08:18:26;;;;;;;;;;;26.20;38.80;;;;;;5033868;28;19963;-71
2022/06/17 08:20:52;;;;;;;;;;;26.20;38.30;;;;;;5034196;28;19905;-73
2022/06/17 08:23:17;;;;;;;;;;;26.30;38.50;;;;;;5033773;28;19909;-72
2022/06/17 08:25:43;;;;;;;;;;;26.30;38.40;;;;;;5034291;28;19909;-73
2022/06/17 08:28:10;;;;;;;;;;;26.30;38.80;;;;;;5033581;28;20288;-75
2022/06/17 08:30:37;;;;;;;;;;;26.40;38.70;;;;;;5033449;28;19961;-73
2022/06/17 08:33:03;;;;;;;;;;;26.40;38.30;;;;;;5033419;28;19955;-73
2022/06/17 08:35:31;;;;;;;;;;;26.50;38.40;;;;;;5033387;28;19905;-74
2022/06/17 08:38:01;;;;;;;;;;;26.50;38.40;;;;;;5033803;28;20262;-73
2022/06/17 08:40:46;;;;;;;;;;;26.60;38.40;;;;;;5032131;28;19963;-72
2022/06/17 08:43:30;;;;;;;;;;;26.60;38.20;;;;;;5033540;28;19905;-74
2022/06/17 08:46:14;;;;;;;;;;;26.70;38.00;;;;;;5033399;28;19948;-73
2022/06/17 08:48:39;;;;;;;;;;;26.60;37.90;;;;;;5033252;28;19958;-73
2022/06/17 08:51:06;;;;;;;;;;;26.60;38.00;;;;;;5033450;28;19909;-73
2022/06/17 08:53:45;;;;;;;;;;;26.70;38.00;;;;;;5033322;28;20300;-73
2022/06/17 08:56:49;;;;;;;;;;;26.70;37.30;;;;;;5033998;28;19905;-72
2022/06/17 08:59:33;;;;;;;;;;;26.80;37.10;;;;;;5050842;28;19986;-73
2022/06/17 09:02:04;;;;;;;;;;;26.80;37.40;;;;;;5051565;28;19905;-73
2022/06/17 09:04:47;;;;;;;;;;;26.80;37.50;;;;;;5040215;28;19904;-73
2022/06/17 09:07:27;;;;;;;;;;;26.90;37.80;;;;;;5034277;28;19931;-73
2022/06/17 09:10:03;;;;;;;;;;;26.90;37.40;;;;;;5037269;28;20374;-74
2022/06/17 09:12:37;;;;;;;;;;;27.00;37.30;;;;;;5036991;28;19916;-74
2022/06/17 09:15:32;;;;;;;;;;;27.00;37.40;;;;;;5037315;28;19925;-73
2022/06/17 09:17:57;;;;;;;;;;;27.00;36.00;;;;;;5040505;28;19909;-72
2022/06/17 09:20:27;;;;;;;;;;;27.00;37.10;;;;;;5037024;28;19912;-74
2022/06/17 09:22:54;;;;;;;;;;;27.10;37.20;;;;;;5036912;28;20322;-73
2022/06/17 09:25:24;;;;;;;;;;;27.10;36.80;;;;;;5035751;28;20266;-75
2022/06/17 09:27:50;;;;;;;;;;;27.10;37.20;;;;;;5035500;28;19925;-73
2022/06/17 09:30:20;;;;;;;;;;;27.10;37.10;;;;;;5036570;28;19936;-73
2022/06/17 09:32:58;;;;;;;;;;;27.10;37.40;;;;;;5036627;28;20344;-73
2022/06/17 09:35:24;;;;;;;;;;;27.20;36.80;;;;;;5036510;28;20378;-73
2022/06/17 09:38:09;;;;;;;;;;;27.20;36.70;;;;;;5035455;28;19905;-73
2022/06/17 09:40:37;;;;;;;;;;;27.20;37.20;;;;;;5034643;28;19932;-75
2022/06/17 09:43:03;;;;;;;;;;;27.30;37.60;;;;;;5036595;28;19920;-73
2022/06/17 09:45:28;;;;;;;;;;;27.30;36.70;;;;;;5036762;28;20213;-73
2022/06/17 09:48:06;;;;;;;;;;;27.30;37.20;;;;;;5036245;28;19905;-73
2022/06/17 09:50:36;;;;;;;;;;;27.30;36.80;;;;;;5036277;28;19913;-73
2022/06/17 09:53:22;;;;;;;;;;;27.40;37.20;;;;;;5035345;28;19931;-73
2022/06/17 09:56:06;;;;;;;;;;;27.40;37.20;;;;;;5035997;28;19913;-74
2022/06/17 09:58:51;;;;;;;;;;;27.40;37.00;;;;;;5034660;28;20374;-73
2022/06/17 10:01:18;;;;;;;;;;;27.40;36.90;;;;;;5036251;28;19951;-73
2022/06/17 10:03:44;;;;;;;;;;;27.50;36.80;;;;;;5036244;28;19999;-73
2022/06/17 10:06:28;;;;;;;;;;;27.50;36.60;;;;;;5036136;28;19943;-74
2022/06/17 10:09:03;;;;;;;;;;;27.50;36.90;;;;;;5035879;28;20000;-74
2022/06/17 10:11:32;;;;;;;;;;;27.60;36.80;;;;;;5035863;28;19913;-73
2022/06/17 10:14:13;;;;;;;;;;;27.60;36.50;;;;;;5035814;28;19919;-73
2022/06/17 10:19:41;;;;;;;;;;;27.80;36.70;;;;;;5034473;28;19911;-73
2022/06/17 10:22:19;;;;;;;;;;;27.90;36.50;;;;;;5036261;28;19905;-74
2022/06/17 10:24:44;;;;;;;;;;;27.90;36.40;;;;;;5036168;28;19905;-74
2022/06/17 10:27:16;;;;;;;;;;;27.90;36.20;;;;;;5035853;28;19928;-74
2022/06/17 10:30:17;;;;;;;;;;;27.90;36.60;;;;;;5035469;28;19912;-74
2022/06/17 10:32:44;;;;;;;;;;;27.80;36.50;;;;;;5053402;28;19916;-74
2022/06/17 10:35:15;;;;;;;;;;;27.80;36.60;;;;;;5038957;28;19905;-74
2022/06/17 10:37:40;;;;;;;;;;;27.90;36.40;;;;;;5035323;28;19912;-74
2022/06/17 10:40:07;;;;;;;;;;;27.90;36.30;;;;;;5035139;28;20314;-75
2022/06/17 10:42:33;;;;;;;;;;;27.90;36.50;;;;;;5035667;28;19905;-72
2022/06/17 10:45:00;;;;;;;;;;;27.90;36.50;;;;;;5034277;28;20423;-74
2022/06/17 10:47:36;;;;;;;;;;;27.90;36.30;;;;;;5035249;28;19905;-73
2022/06/17 10:50:10;;;;;;;;;;;27.90;36.20;;;;;;5034796;28;19909;-73
2022/06/17 10:52:37;;;;;;;;;;;27.90;36.40;;;;;;5035206;28;19924;-73
2022/06/17 10:55:03;;;;;;;;;;;27.90;36.40;;;;;;5033825;28;19959;-73
2022/06/17 10:57:30;;;;;;;;;;;27.90;36.30;;;;;;5034013;28;19905;-73
2022/06/17 10:59:56;;;;;;;;;;;27.90;35.90;;;;;;5035014;28;20000;-72
2022/06/17 11:02:22;;;;;;;;;;;27.90;36.40;;;;;;5035311;28;20362;-73
2022/06/17 11:04:57;;;;;;;;;;;27.90;35.90;;;;;;5033787;28;20271;-74
2022/06/17 11:07:23;;;;;;;;;;;28.00;36.40;;;;;;5033681;28;19932;-74
2022/06/17 11:09:54;;;;;;;;;;;28.00;36.50;;;;;;5035167;28;19928;-74
2022/06/17 11:12:22;;;;;;;;;;;28.00;36.30;;;;;;5033762;28;20007;-73
2022/06/17 11:14:53;;;;;;;;;;;28.00;36.40;;;;;;5035235;28;20298;-74
2022/06/17 11:17:28;;;;;;;;;;;28.00;36.30;;;;;;5034903;28;19905;-74
2022/06/17 11:19:57;;;;;;;;;;;28.00;36.30;;;;;;5034915;28;19973;-74
2022/06/17 11:22:36;;;;;;;;;;;28.00;36.20;;;;;;5033811;28;19959;-73
2022/06/17 11:25:05;;;;;;;;;;;28.00;36.20;;;;;;5034788;28;20268;-74
2022/06/17 11:27:33;;;;;;;;;;;27.90;36.20;;;;;;5034787;28;19921;-73
2022/06/17 11:30:17;;;;;;;;;;;27.90;36.20;;;;;;5034156;28;20310;-74
2022/06/17 11:32:43;;;;;;;;;;;27.90;36.10;;;;;;5034856;28;19954;-73
2022/06/17 11:35:25;;;;;;;;;;;28.00;36.50;;;;;;5034439;28;19909;-71
2022/06/17 11:37:51;;;;;;;;;;;28.00;36.30;;;;;;5033322;28;19905;-73
2022/06/17 11:40:17;;;;;;;;;;;28.00;36.20;;;;;;5034237;28;20313;-74
2022/06/17 11:42:45;;;;;;;;;;;28.00;36.10;;;;;;5034016;28;20000;-74
2022/06/17 11:45:13;;;;;;;;;;;28.10;36.20;;;;;;5034145;28;20011;-73
2022/06/17 11:47:43;;;;;;;;;;;28.10;36.00;;;;;;5034530;28;20298;-73
2022/06/17 11:50:15;;;;;;;;;;;28.00;36.00;;;;;;5032799;28;20351;-74
2022/06/17 11:52:42;;;;;;;;;;;28.00;36.00;;;;;;5032688;28;19912;-74
2022/06/17 11:55:09;;;;;;;;;;;28.00;35.60;;;;;;5032836;28;20446;-74
2022/06/17 11:57:37;;;;;;;;;;;27.90;35.50;;;;;;5034145;28;19959;-74
2022/06/17 12:00:07;;;;;;;;;;;27.90;35.90;;;;;;5032982;28;20263;-74
2022/06/17 12:02:32;;;;;;;;;;;27.90;35.90;;;;;;5033939;28;20363;-74
2022/06/17 12:05:09;;;;;;;;;;;28.00;36.00;;;;;;5034126;28;19905;-74
2022/06/17 12:07:38;;;;;;;;;;;28.00;35.90;;;;;;5032484;28;19905;-74
2022/06/17 12:10:03;;;;;;;;;;;28.10;36.00;;;;;;5033985;28;20366;-74
2022/06/17 12:12:30;;;;;;;;;;;28.10;35.90;;;;;;5033932;28;19948;-74
2022/06/17 12:15:01;;;;;;;;;;;28.20;35.80;;;;;;5032713;28;20336;-74
2022/06/17 12:17:28;;;;;;;;;;;28.20;35.80;;;;;;5033390;28;19905;-74
2022/06/17 12:19:53;;;;;;;;;;;28.20;35.80;;;;;;5033989;28;20270;-74
2022/06/17 12:22:22;;;;;;;;;;;28.10;35.70;;;;;;5033538;28;19913;-73
2022/06/17 12:25:06;;;;;;;;;;;28.20;35.70;;;;;;5033682;28;19909;-73
2022/06/17 12:27:34;;;;;;;;;;;28.30;35.90;;;;;;5034047;28;20329;-73
2022/06/17 12:30:03;;;;;;;;;;;28.30;35.80;;;;;;5033862;28;20390;-74
2022/06/17 12:32:32;;;;;;;;;;;28.40;36.00;;;;;;5033824;28;20371;-74
2022/06/17 12:35:12;;;;;;;;;;;28.40;35.90;;;;;;5032705;28;19971;-74
2022/06/17 12:37:40;;;;;;;;;;;28.50;35.80;;;;;;5033885;28;19916;-74
2022/06/17 12:40:25;;;;;;;;;;;28.50;35.60;;;;;;5033452;28;19905;-74
2022/06/17 12:43:09;;;;;;;;;;;28.50;35.60;;;;;;5035594;28;19959;-74
2022/06/17 12:45:53;;;;;;;;;;;28.50;35.60;;;;;;5037678;28;19905;-72
2022/06/17 12:48:24;;;;;;;;;;;28.50;35.50;;;;;;5037492;28;19911;-73
2022/06/17 12:53:52;;;;;;;;;;;28.60;35.80;;;;;;5037529;28;20022;-73
2022/06/17 12:56:24;;;;;;;;;;;28.60;35.90;;;;;;5036179;28;19948;-73
2022/06/17 12:58:50;;;;;;;;;;;28.60;35.80;;;;;;5037669;28;19905;-74
2022/06/17 13:01:36;;;;;;;;;;;28.70;35.60;;;;;;5037398;28;19912;-73
2022/06/17 13:04:17;;;;;;;;;;;28.70;35.60;;;;;;5045885;28;19905;-73
2022/06/17 13:07:08;;;;;;;;;;;28.80;35.70;;;;;;5037207;28;19905;-73
2022/06/17 13:09:52;;;;;;;;;;;28.90;35.70;;;;;;5044058;28;19951;-73
2022/06/17 13:12:22;;;;;;;;;;;28.90;35.60;;;;;;5035474;28;19917;-74
2022/06/17 13:14:53;;;;;;;;;;;28.90;35.50;;;;;;5037067;28;19909;-73
2022/06/17 13:17:42;;;;;;;;;;;28.90;35.20;;;;;;5037136;28;19931;-73
2022/06/17 13:20:07;;;;;;;;;;;28.90;35.50;;;;;;5044984;28;19909;-72
2022/06/17 13:22:42;;;;;;;;;;;28.90;35.80;;;;;;5036499;28;19928;-73
2022/06/17 13:25:17;;;;;;;;;;;28.90;36.20;;;;;;5036726;28;19909;-73
2022/06/17 13:28:01;;;;;;;;;;;28.80;35.80;;;;;;5036301;28;19943;-73
2022/06/17 13:30:32;;;;;;;;;;;28.80;36.60;;;;;;5036680;28;20352;-73
2022/06/17 13:33:03;;;;;;;;;;;28.70;36.50;;;;;;5036425;28;19913;-73
2022/06/17 13:35:34;;;;;;;;;;;28.60;36.40;;;;;;5036691;28;20369;-73
2022/06/17 13:38:18;;;;;;;;;;;28.60;36.90;;;;;;5036306;28;19908;-73
2022/06/17 13:40:47;;;;;;;;;;;28.60;37.70;;;;;;5036257;28;19905;-73
2022/06/17 13:43:18;;;;;;;;;;;28.60;37.20;;;;;;5036387;28;19948;-73
2022/06/17 13:45:47;;;;;;;;;;;28.60;37.10;;;;;;5036249;28;19909;-73
2022/06/17 13:48:16;;;;;;;;;;;28.50;37.00;;;;;;5036340;28;19905;-73
2022/06/17 13:50:41;;;;;;;;;;;28.50;37.20;;;;;;5036302;28;20340;-73
2022/06/17 13:53:27;;;;;;;;;;;28.50;37.20;;;;;;5036319;28;19920;-73
2022/06/17 13:55:53;;;;;;;;;;;28.60;37.60;;;;;;5045050;28;19928;-73
2022/06/17 13:58:33;;;;;;;;;;;29.10;37.80;;;;;;5036013;28;19906;-73
2022/06/17 14:01:04;;;;;;;;;;;29.50;37.50;;;;;;5036020;28;19905;-73
2022/06/17 14:03:48;;;;;;;;;;;29.80;37.30;;;;;;5035894;28;20340;-73
2022/06/17 14:06:14;;;;;;;;;;;29.90;37.00;;;;;;5036072;28;20023;-73
2022/06/17 14:08:45;;;;;;;;;;;29.80;36.90;;;;;;5035491;28;19944;-73
2022/06/17 14:14:14;;;;;;;;;;;29.70;36.80;;;;;;5036036;28;20048;-73
2022/06/17 14:16:40;;;;;;;;;;;29.60;36.90;;;;;;5035733;28;19906;-73
2022/06/17 14:19:09;;;;;;;;;;;29.50;36.90;;;;;;5035490;28;19909;-73
2022/06/17 14:21:44;;;;;;;;;;;29.50;36.90;;;;;;5035524;28;20386;-74
2022/06/17 14:24:13;;;;;;;;;;;29.50;36.90;;;;;;5035686;28;19905;-73
2022/06/17 14:26:39;;;;;;;;;;;29.50;36.90;;;;;;5034004;28;20000;-73
2022/06/17 14:29:12;;;;;;;;;;;29.60;36.90;;;;;;5035584;28;20012;-73
2022/06/17 14:31:38;;;;;;;;;;;29.80;37.10;;;;;;5035702;28;19928;-74
2022/06/17 14:34:06;;;;;;;;;;;29.90;36.90;;;;;;5035499;28;19913;-72
2022/06/17 14:36:52;;;;;;;;;;;29.90;36.70;;;;;;5035789;28;20007;-73
2022/06/17 14:39:20;;;;;;;;;;;29.90;36.60;;;;;;5035286;28;19947;-72
2022/06/17 14:42:02;;;;;;;;;;;29.80;36.70;;;;;;5034830;28;19948;-72
2022/06/17 14:44:39;;;;;;;;;;;29.70;36.80;;;;;;5035373;28;19909;-72
2022/06/17 14:47:29;;;;;;;;;;;29.60;36.70;;;;;;5034980;28;19905;-72
2022/06/17 14:50:13;;;;;;;;;;;29.50;36.90;;;;;;5034924;28;20244;-73